createdAt,value
2023-01-30T00:01:32.476Z,85.70
2023-01-30T00:04:00.096Z,85.83
2023-01-30T00:06:27.455Z,85.79
2023-01-30T00:08:54.929Z,85.65
2023-01-30T00:11:22.394Z,85.68
2023-01-30T00:13:50.819Z,85.45
2023-01-30T00:16:18.866Z,85.23
2023-01-30T00:18:48.364Z,85.58
2023-01-30T00:21:18.524Z,85.39
2023-01-30T00:23:48.012Z,85.19
2023-01-30T00:26:15.070Z,85.03
2023-01-30T00:28:44.569Z,85.14
2023-01-30T00:31:12.687Z,85.10
2023-01-30T00:33:39.915Z,85.18
2023-01-30T00:36:10.869Z,85.12
2023-01-30T00:38:37.944Z,84.99
2023-01-30T00:41:05.119Z,85.00
2023-01-30T00:43:50.353Z,84.96
2023-01-30T00:46:52.292Z,84.64
2023-01-30T00:49:19.808Z,84.91
2023-01-30T00:51:47.196Z,84.97
2023-01-30T00:54:14.397Z,84.94
2023-01-30T00:56:44.137Z,84.91
2023-01-30T00:59:11.154Z,84.77
2023-01-30T01:01:38.278Z,84.82
2023-01-30T01:04:08.960Z,84.86
2023-01-30T01:06:38.661Z,84.93
2023-01-30T01:09:07.022Z,84.97
2023-01-30T01:11:34.080Z,84.83
2023-01-30T01:14:09.697Z,84.77
2023-01-30T01:16:36.921Z,84.85
2023-01-30T01:19:04.604Z,84.95
2023-01-30T01:21:31.612Z,84.85
2023-01-30T01:24:00.800Z,84.79
2023-01-30T01:26:28.101Z,84.85
2023-01-30T01:28:57.776Z,84.78
2023-01-30T01:31:25.729Z,84.75
2023-01-30T01:33:52.959Z,84.80
2023-01-30T01:36:49.783Z,84.82
2023-01-30T01:39:07.242Z,84.49
2023-01-30T01:41:34.237Z,84.74
2023-01-30T01:44:12.418Z,84.63
2023-01-30T01:46:42.437Z,84.71
2023-01-30T01:49:33.111Z,84.66
2023-01-30T01:52:13.329Z,84.63
2023-01-30T01:55:00.794Z,84.62
2023-01-30T01:57:46.175Z,84.61
2023-01-30T02:00:17.777Z,84.65
2023-01-30T02:02:54.792Z,84.62
2023-01-30T02:05:22.344Z,84.56
2023-01-30T02:08:07.343Z,84.62
2023-01-30T02:10:46.424Z,84.66
2023-01-30T02:13:13.411Z,84.84
2023-01-30T02:15:40.788Z,85.08
2023-01-30T02:18:07.983Z,85.19
2023-01-30T02:20:56.269Z,85.62
2023-01-30T02:24:25.575Z,85.88
2023-01-30T02:27:29.412Z,86.19
2023-01-30T02:30:27.142Z,86.50
2023-01-30T02:33:04.124Z,86.78
2023-01-30T02:36:15.769Z,86.76
2023-01-30T02:39:49.723Z,87.05
2023-01-30T02:42:50.715Z,87.07
2023-01-30T02:45:43.305Z,87.05
2023-01-30T02:48:22.294Z,87.28
2023-01-30T02:51:22.320Z,87.52
2023-01-30T02:53:50.930Z,87.55
2023-01-30T02:56:18.059Z,87.82
2023-01-30T02:59:02.806Z,88.11
2023-01-30T03:01:49.006Z,88.44
2023-01-30T03:04:43.219Z,88.59
2023-01-30T03:07:28.714Z,88.90
2023-01-30T03:10:09.677Z,89.03
2023-01-30T03:13:21.175Z,89.33
2023-01-30T03:16:00.066Z,89.30
2023-01-30T03:18:27.204Z,89.38
2023-01-30T03:20:54.667Z,89.59
2023-01-30T03:23:21.695Z,89.93
2023-01-30T03:25:49.543Z,89.87
2023-01-30T03:28:21.217Z,89.73
2023-01-30T03:30:48.288Z,90.05
2023-01-30T03:33:15.282Z,90.20
2023-01-30T03:35:43.319Z,90.12
2023-01-30T03:38:11.090Z,90.18
2023-01-30T03:40:38.193Z,90.46
2023-01-30T03:43:07.854Z,90.50
2023-01-30T03:45:34.935Z,90.53
2023-01-30T03:48:01.933Z,90.40
2023-01-30T03:50:29.549Z,90.61
2023-01-30T03:52:56.512Z,90.85
2023-01-30T03:55:23.484Z,90.82
2023-01-30T03:57:56.812Z,90.85
2023-01-30T04:00:23.934Z,90.87
2023-01-30T04:02:51.111Z,91.05
2023-01-30T04:05:19.092Z,91.30
2023-01-30T04:07:46.348Z,91.36
2023-01-30T04:10:15.496Z,91.43
2023-01-30T04:12:43.212Z,91.39
2023-01-30T04:15:11.407Z,91.60
2023-01-30T04:17:38.336Z,91.57
2023-01-30T04:20:06.207Z,91.70
2023-01-30T04:22:33.167Z,91.73
2023-01-30T04:25:00.139Z,91.80
2023-01-30T04:27:27.217Z,91.87
2023-01-30T04:29:54.244Z,91.87
2023-01-30T04:32:23.723Z,91.81
2023-01-30T04:34:52.912Z,91.66
2023-01-30T04:37:19.867Z,91.82
2023-01-30T04:39:46.840Z,91.93
2023-01-30T04:42:13.915Z,92.02
2023-01-30T04:44:40.865Z,92.21
2023-01-30T04:47:10.211Z,92.00
2023-01-30T04:49:37.167Z,92.02
2023-01-30T04:52:04.499Z,92.01
2023-01-30T04:54:31.443Z,91.85
2023-01-30T04:56:58.511Z,91.96
2023-01-30T04:59:25.640Z,91.77
2023-01-30T05:01:52.756Z,91.93
2023-01-30T05:04:19.784Z,91.99
2023-01-30T05:06:46.836Z,92.06
2023-01-30T05:09:13.886Z,92.03
2023-01-30T05:11:40.931Z,91.96
2023-01-30T05:14:07.908Z,92.16
2023-01-30T05:16:35.181Z,92.20
2023-01-30T05:19:02.215Z,92.29
2023-01-30T05:21:29.285Z,92.33
2023-01-30T05:23:57.634Z,92.81
2023-01-30T05:26:25.514Z,92.90
2023-01-30T05:28:57.648Z,93.22
2023-01-30T05:31:25.086Z,93.47
2023-01-30T05:33:52.694Z,93.73
2023-01-30T05:36:21.895Z,93.71
2023-01-30T05:38:49.002Z,94.26
2023-01-30T05:41:17.490Z,94.36
2023-01-30T05:43:44.618Z,94.71
2023-01-30T05:46:13.250Z,94.80
2023-01-30T05:48:40.492Z,95.13
2023-01-30T05:51:16.852Z,95.28
2023-01-30T05:53:43.794Z,95.68
2023-01-30T05:56:15.950Z,95.87
2023-01-30T05:58:52.608Z,96.04
2023-01-30T06:01:19.934Z,96.35
2023-01-30T06:03:47.185Z,96.89
2023-01-30T06:06:17.124Z,96.85
2023-01-30T06:08:44.597Z,96.95
2023-01-30T06:11:17.363Z,97.27
2023-01-30T06:13:50.807Z,97.45
2023-01-30T06:16:19.362Z,97.56
2023-01-30T06:18:49.667Z,97.91
2023-01-30T06:21:16.968Z,97.84
2023-01-30T06:23:44.591Z,98.31
2023-01-30T06:26:11.626Z,98.20
2023-01-30T06:28:38.698Z,98.72
2023-01-30T06:31:09.588Z,98.62
2023-01-30T06:33:37.047Z,98.65
2023-01-30T06:36:04.615Z,98.76
2023-01-30T06:38:31.772Z,99.17
2023-01-30T06:40:58.862Z,99.26
2023-01-30T06:43:25.938Z,99.26
2023-01-30T06:45:52.905Z,99.35
2023-01-30T06:48:19.969Z,99.40
2023-01-30T06:50:48.221Z,99.46
2023-01-30T06:53:15.352Z,99.87
2023-01-30T06:55:42.352Z,99.78
2023-01-30T06:58:14.928Z,99.76
2023-01-30T07:00:43.476Z,99.78
2023-01-30T07:03:16.225Z,99.96
2023-01-30T07:05:45.217Z,100.00
2023-01-30T07:08:13.389Z,100.00
2023-01-30T07:10:41.991Z,100.00
2023-01-30T07:13:09.115Z,100.00
2023-01-30T07:15:36.217Z,100.00
2023-01-30T07:18:03.415Z,100.00
2023-01-30T07:20:31.389Z,100.00
2023-01-30T07:22:59.262Z,100.00
2023-01-30T07:25:28.470Z,100.00
2023-01-30T07:28:01.698Z,100.00
2023-01-30T07:30:32.687Z,100.00
2023-01-30T07:33:00.713Z,100.00
2023-01-30T07:35:31.479Z,100.00
2023-01-30T07:37:58.555Z,100.00
2023-01-30T07:40:26.799Z,100.00
2023-01-30T07:43:04.923Z,100.00
2023-01-30T07:45:39.545Z,100.00
2023-01-30T07:48:08.455Z,100.00
2023-01-30T07:50:35.422Z,100.00
2023-01-30T07:53:07.802Z,100.00
2023-01-30T07:55:35.378Z,100.00
2023-01-30T07:58:03.619Z,100.00
2023-01-30T08:00:31.493Z,100.00
2023-01-30T08:02:59.084Z,100.00
2023-01-30T08:05:26.673Z,100.00
2023-01-30T08:07:56.584Z,100.00
2023-01-30T08:10:24.049Z,100.00
2023-01-30T08:12:51.841Z,100.00
2023-01-30T08:15:20.581Z,100.00
2023-01-30T08:17:56.532Z,100.00
2023-01-30T08:20:24.481Z,100.00
2023-01-30T08:22:51.573Z,100.00
2023-01-30T08:25:19.130Z,100.00
2023-01-30T08:27:46.082Z,100.00
2023-01-30T08:30:13.829Z,100.00
2023-01-30T08:32:40.886Z,100.00
2023-01-30T08:35:08.935Z,100.00
2023-01-30T08:37:35.966Z,100.00
2023-01-30T08:40:02.982Z,100.00
2023-01-30T08:42:30.135Z,100.00
2023-01-30T08:44:57.106Z,100.00
2023-01-30T08:47:24.049Z,100.00
2023-01-30T08:49:52.860Z,100.00
2023-01-30T08:52:20.627Z,100.00
2023-01-30T08:54:48.318Z,100.00
2023-01-30T08:57:16.124Z,100.00
2023-01-30T08:59:43.159Z,100.00
2023-01-30T09:02:13.822Z,100.00
2023-01-30T09:04:40.833Z,100.00
2023-01-30T09:07:08.009Z,100.00
2023-01-30T09:09:35.588Z,100.00
2023-01-30T09:12:02.554Z,100.00
2023-01-30T09:14:29.600Z,100.00
2023-01-30T09:16:56.727Z,100.00
2023-01-30T09:19:26.126Z,100.00
2023-01-30T09:21:54.246Z,100.00
2023-01-30T09:24:26.524Z,100.00
2023-01-30T09:26:57.520Z,100.00
2023-01-30T09:29:28.503Z,100.00
2023-01-30T09:31:59.155Z,100.00
2023-01-30T09:34:28.728Z,100.00
2023-01-30T09:37:04.766Z,100.00
2023-01-30T09:39:32.301Z,100.00
2023-01-30T09:42:31.798Z,100.00
2023-01-30T09:45:29.339Z,100.00
2023-01-30T09:48:07.282Z,100.00
2023-01-30T09:51:11.017Z,100.00
2023-01-30T09:54:17.654Z,100.00
2023-01-30T09:56:44.790Z,100.00
2023-01-30T09:59:23.862Z,100.00
2023-01-30T10:02:36.644Z,100.00
2023-01-30T10:05:05.440Z,100.00
2023-01-30T10:08:32.058Z,100.00
2023-01-30T10:11:10.310Z,100.00
2023-01-30T10:14:23.346Z,100.00
2023-01-30T10:17:10.757Z,100.00
2023-01-30T10:20:17.925Z,99.21
2023-01-30T10:23:06.175Z,98.69
2023-01-30T10:25:45.300Z,98.13
2023-01-30T10:28:33.025Z,97.45
2023-01-30T10:31:08.956Z,96.71
2023-01-30T10:33:58.361Z,95.75
2023-01-30T10:37:04.086Z,94.53
2023-01-30T10:40:36.891Z,92.92
2023-01-30T10:43:38.981Z,90.84
2023-01-30T10:46:42.642Z,89.77
2023-01-30T10:49:19.947Z,89.40
2023-01-30T10:51:49.902Z,89.17
2023-01-30T10:54:48.471Z,88.56
2023-01-30T10:57:26.394Z,88.25
2023-01-30T11:00:10.404Z,87.75
2023-01-30T11:03:22.062Z,87.70
2023-01-30T11:05:54.486Z,87.51
2023-01-30T11:08:31.328Z,87.32
2023-01-30T11:11:00.040Z,86.83
2023-01-30T11:13:33.798Z,86.67
2023-01-30T11:16:07.469Z,85.90
2023-01-30T11:21:44.027Z,85.54
2023-01-30T11:24:43.439Z,85.21
2023-01-30T11:27:27.836Z,84.96
2023-01-30T11:30:10.746Z,84.65
2023-01-30T11:32:37.738Z,84.45
2023-01-30T11:35:07.598Z,83.86
2023-01-30T11:37:40.674Z,83.83
2023-01-30T11:40:23.944Z,83.96
2023-01-30T11:43:04.550Z,83.92
2023-01-30T11:45:47.894Z,83.23
2023-01-30T11:48:31.518Z,82.72
2023-01-30T11:51:06.952Z,82.38
2023-01-30T11:53:45.559Z,82.74
2023-01-30T11:56:55.768Z,82.72
2023-01-30T11:59:32.984Z,82.34
2023-01-30T12:02:23.027Z,81.97
2023-01-30T12:04:55.729Z,82.28
2023-01-30T12:07:31.105Z,82.10
2023-01-30T12:09:59.219Z,82.34
2023-01-30T12:12:48.104Z,82.01
2023-01-30T12:15:31.629Z,83.12
2023-01-30T12:18:27.208Z,84.26
2023-01-30T12:21:10.034Z,85.38
2023-01-30T12:23:40.878Z,86.49
2023-01-30T12:26:35.348Z,86.52
2023-01-30T12:29:30.063Z,86.89
2023-01-30T12:32:20.453Z,86.77
2023-01-30T12:34:48.416Z,85.94
2023-01-30T12:37:36.858Z,85.99
2023-01-30T12:40:28.637Z,85.31
2023-01-30T12:43:22.887Z,84.70
2023-01-30T12:46:31.638Z,84.28
2023-01-30T12:49:11.757Z,84.57
2023-01-30T12:52:03.367Z,84.37
2023-01-30T12:55:16.016Z,84.09
2023-01-30T12:58:01.087Z,84.40
2023-01-30T13:00:30.814Z,84.53
2023-01-30T13:03:35.645Z,84.57
2023-01-30T13:06:39.428Z,84.01
2023-01-30T13:09:50.102Z,83.57
2023-01-30T13:12:45.759Z,83.44
2023-01-30T13:15:15.804Z,82.67
2023-01-30T13:18:15.197Z,82.20
2023-01-30T13:21:12.652Z,81.93
2023-01-30T13:24:04.795Z,81.50
2023-01-30T13:26:35.963Z,80.92
2023-01-30T13:29:31.561Z,80.48
2023-01-30T13:32:02.540Z,80.09
2023-01-30T13:34:36.941Z,79.80
2023-01-30T13:37:22.386Z,79.57
2023-01-30T13:40:28.696Z,79.23
2023-01-30T13:43:23.806Z,79.38
2023-01-30T13:45:54.636Z,79.45
2023-01-30T13:48:49.148Z,80.10
2023-01-30T13:51:43.792Z,80.20
2023-01-30T13:54:39.812Z,81.09
2023-01-30T13:57:40.964Z,81.87
2023-01-30T14:00:17.402Z,82.55
2023-01-30T14:03:03.206Z,83.50
2023-01-30T14:05:51.922Z,83.88
2023-01-30T14:08:25.802Z,84.46
2023-01-30T14:10:55.681Z,85.19
2023-01-30T14:13:26.791Z,86.22
2023-01-30T14:16:02.497Z,87.56
2023-01-30T14:18:35.984Z,88.74
2023-01-30T14:21:20.243Z,89.68
2023-01-30T14:24:05.118Z,90.52
2023-01-30T14:26:50.602Z,91.10
2023-01-30T14:29:39.212Z,91.35
2023-01-30T14:32:15.430Z,91.96
2023-01-30T14:35:06.871Z,92.00
2023-01-30T14:37:39.471Z,92.12
2023-01-30T14:40:21.387Z,92.54
2023-01-30T14:43:13.211Z,93.01
2023-01-30T14:45:52.793Z,93.13
2023-01-30T14:48:55.339Z,93.71
2023-01-30T14:51:40.268Z,93.76
2023-01-30T14:54:13.763Z,93.86
2023-01-30T14:57:00.374Z,93.70
2023-01-30T14:59:54.100Z,93.98
2023-01-30T15:02:34.903Z,93.78
2023-01-30T15:05:02.160Z,93.94
2023-01-30T15:08:07.705Z,94.21
2023-01-30T15:10:55.642Z,94.33
2023-01-30T15:13:57.952Z,94.36
2023-01-30T15:17:02.106Z,94.40
2023-01-30T15:20:07.863Z,94.36
2023-01-30T15:23:07.510Z,94.30
2023-01-30T15:26:18.459Z,93.84
2023-01-30T15:29:27.188Z,94.14
2023-01-30T15:32:13.355Z,94.22
2023-01-30T15:34:56.189Z,94.48
2023-01-30T15:37:40.356Z,94.53
2023-01-30T15:40:22.618Z,94.61
2023-01-30T15:43:10.852Z,94.95
2023-01-30T15:45:47.277Z,95.01
2023-01-30T15:49:07.994Z,95.22
2023-01-30T15:51:35.313Z,95.13
2023-01-30T15:54:10.435Z,94.91
2023-01-30T15:56:40.118Z,95.09
2023-01-30T15:59:08.332Z,95.05
2023-01-30T16:01:35.486Z,94.75
2023-01-30T16:04:07.947Z,94.24
2023-01-30T16:06:37.628Z,93.81
2023-01-30T16:09:21.773Z,94.00
2023-01-30T16:11:49.216Z,94.20
2023-01-30T16:14:19.038Z,94.66
2023-01-30T16:16:57.082Z,94.86
2023-01-30T16:19:30.097Z,94.99
2023-01-30T16:22:06.515Z,94.83
2023-01-30T16:24:37.453Z,94.83
2023-01-30T16:27:27.846Z,94.91
2023-01-30T16:30:00.510Z,95.29
2023-01-30T16:32:29.748Z,95.23
2023-01-30T16:35:26.896Z,95.58
2023-01-30T16:37:57.252Z,96.06
2023-01-30T16:40:28.978Z,96.37
2023-01-30T16:43:21.702Z,96.59
2023-01-30T16:45:54.788Z,96.49
2023-01-30T16:48:36.981Z,97.25
2023-01-30T16:51:30.364Z,97.27
2023-01-30T16:54:02.960Z,97.46
2023-01-30T16:56:33.930Z,97.29
2023-01-30T16:59:02.353Z,97.35
2023-01-30T17:01:40.240Z,97.75
2023-01-30T17:04:18.824Z,97.83
2023-01-30T17:06:54.089Z,97.42
2023-01-30T17:09:44.599Z,97.48
2023-01-30T17:12:37.264Z,97.48
2023-01-30T17:15:11.734Z,97.35
2023-01-30T17:17:39.910Z,97.41
2023-01-30T17:20:08.502Z,97.29
2023-01-30T17:22:37.741Z,97.30
2023-01-30T17:25:14.530Z,97.53
2023-01-30T17:27:41.501Z,97.71
2023-01-30T17:30:16.218Z,97.88
2023-01-30T17:32:43.231Z,97.89
2023-01-30T17:35:12.423Z,97.89
2023-01-30T17:37:39.501Z,97.64
2023-01-30T17:40:25.275Z,97.86
2023-01-30T17:42:52.311Z,97.82
2023-01-30T17:45:19.587Z,97.81
2023-01-30T17:47:46.791Z,97.82
2023-01-30T17:50:14.614Z,97.49
2023-01-30T17:52:41.936Z,97.63
2023-01-30T17:55:13.341Z,97.76
2023-01-30T17:57:48.974Z,97.79
2023-01-30T18:00:20.585Z,97.38
2023-01-30T18:02:48.138Z,97.21
2023-01-30T18:05:15.423Z,96.95
2023-01-30T18:07:42.794Z,96.81
2023-01-30T18:10:17.769Z,96.47
2023-01-30T18:12:48.284Z,96.38
2023-01-30T18:15:16.420Z,96.14
2023-01-30T18:17:49.109Z,95.67
2023-01-30T18:20:20.117Z,95.00
2023-01-30T18:22:47.622Z,94.69
2023-01-30T18:25:16.220Z,94.74
2023-01-30T18:27:44.680Z,94.15
2023-01-30T18:30:16.877Z,93.77
2023-01-30T18:32:52.979Z,93.72
2023-01-30T18:35:22.575Z,93.23
2023-01-30T18:37:50.121Z,92.71
2023-01-30T18:40:18.666Z,92.58
2023-01-30T18:42:46.368Z,92.70
2023-01-30T18:45:13.329Z,92.05
2023-01-30T18:47:40.310Z,91.77
2023-01-30T18:50:07.591Z,91.35
2023-01-30T18:52:34.596Z,90.97
2023-01-30T18:55:02.227Z,90.86
2023-01-30T18:57:29.185Z,90.42
2023-01-30T18:59:56.182Z,90.18
2023-01-30T19:02:23.192Z,89.66
2023-01-30T19:04:50.162Z,89.23
2023-01-30T19:07:17.136Z,88.61
2023-01-30T19:09:44.130Z,88.59
2023-01-30T19:12:29.781Z,88.11
2023-01-30T19:14:56.793Z,87.60
2023-01-30T19:17:23.771Z,87.52
2023-01-30T19:19:50.737Z,87.29
2023-01-30T19:22:18.257Z,86.69
2023-01-30T19:24:45.300Z,86.37
2023-01-30T19:27:13.956Z,86.32
2023-01-30T19:29:44.090Z,86.18
2023-01-30T19:32:11.138Z,86.05
2023-01-30T19:34:38.535Z,85.78
2023-01-30T19:37:05.966Z,85.45
2023-01-30T19:39:32.967Z,85.23
2023-01-30T19:42:00.168Z,84.65
2023-01-30T19:44:27.159Z,84.36
2023-01-30T19:46:54.170Z,84.47
2023-01-30T19:49:21.257Z,84.11
2023-01-30T19:51:48.284Z,83.92
2023-01-30T19:54:16.076Z,84.07
2023-01-30T19:56:47.394Z,83.90
2023-01-30T19:59:16.121Z,83.60
2023-01-30T20:01:43.137Z,84.09
2023-01-30T20:04:10.155Z,84.17
2023-01-30T20:06:38.185Z,84.08
2023-01-30T20:09:11.331Z,84.39
2023-01-30T20:11:40.971Z,84.44
2023-01-30T20:14:09.901Z,84.44
2023-01-30T20:16:37.409Z,84.96
2023-01-30T20:19:14.701Z,84.92
2023-01-30T20:21:43.067Z,85.21
2023-01-30T20:24:16.616Z,85.06
2023-01-30T20:26:47.855Z,85.01
2023-01-30T20:29:17.510Z,85.06
2023-01-30T20:31:44.583Z,85.32
2023-01-30T20:34:13.610Z,85.13
2023-01-30T20:36:41.217Z,84.70
2023-01-30T20:39:08.682Z,84.26
2023-01-30T20:41:37.637Z,83.56
2023-01-30T20:44:07.549Z,83.25
2023-01-30T20:46:44.109Z,83.16
2023-01-30T20:49:22.826Z,82.90
2023-01-30T20:51:52.925Z,82.56
2023-01-30T20:54:23.037Z,82.66
2023-01-30T20:56:53.427Z,82.55
2023-01-30T20:59:27.192Z,82.51
2023-01-30T21:01:54.627Z,82.25
2023-01-30T21:04:24.312Z,82.28
2023-01-30T21:06:51.411Z,82.34
2023-01-30T21:09:22.091Z,81.93
2023-01-30T21:11:51.165Z,82.13
2023-01-30T21:14:18.372Z,81.83
2023-01-30T21:16:46.487Z,81.19
2023-01-30T21:19:16.541Z,81.20
2023-01-30T21:21:51.045Z,81.27
2023-01-30T21:24:25.150Z,81.51
2023-01-30T21:26:53.219Z,81.74
2023-01-30T21:29:25.148Z,81.28
2023-01-30T21:31:52.881Z,81.42
2023-01-30T21:34:19.988Z,81.91
2023-01-30T21:37:06.898Z,81.59
2023-01-30T21:39:52.859Z,81.78
2023-01-30T21:42:39.104Z,81.97
2023-01-30T21:45:06.987Z,81.92
2023-01-30T21:47:34.103Z,82.13
2023-01-30T21:50:02.187Z,82.23
2023-01-30T21:52:31.975Z,81.99
2023-01-30T21:54:59.081Z,82.03
2023-01-30T21:57:26.063Z,82.22
2023-01-30T21:59:53.031Z,81.99
2023-01-30T22:02:20.232Z,82.16
2023-01-30T22:04:47.172Z,81.87
2023-01-30T22:07:14.159Z,82.06
2023-01-30T22:09:41.129Z,81.84
2023-01-30T22:12:08.101Z,81.77
2023-01-30T22:14:36.378Z,81.87
2023-01-30T22:17:03.511Z,82.00
2023-01-30T22:19:35.312Z,81.99
2023-01-30T22:22:02.971Z,82.16
2023-01-30T22:24:30.266Z,81.98
2023-01-30T22:26:57.656Z,82.16
2023-01-30T22:29:24.780Z,82.11
2023-01-30T22:31:51.837Z,82.17
2023-01-30T22:34:19.210Z,82.20
2023-01-30T22:36:47.830Z,82.40
2023-01-30T22:39:14.927Z,82.50
2023-01-30T22:41:41.935Z,82.46
2023-01-30T22:44:10.748Z,82.35
2023-01-30T22:46:40.235Z,82.22
2023-01-30T22:49:09.411Z,82.26
2023-01-30T22:51:39.978Z,82.30
2023-01-30T22:54:16.574Z,82.08
2023-01-30T22:56:46.877Z,82.38
2023-01-30T22:59:14.346Z,82.55
2023-01-30T23:01:53.134Z,82.35
2023-01-30T23:04:23.145Z,82.79
2023-01-30T23:06:51.926Z,83.45
2023-01-30T23:09:22.309Z,83.53
2023-01-30T23:12:12.217Z,82.99
2023-01-30T23:14:39.674Z,82.75
2023-01-30T23:17:25.715Z,82.84
2023-01-30T23:19:53.916Z,82.98
2023-01-30T23:22:21.029Z,82.98
2023-01-30T23:24:48.819Z,83.34
2023-01-30T23:27:16.024Z,83.19
2023-01-30T23:29:43.011Z,83.29
2023-01-30T23:32:10.138Z,83.09
2023-01-30T23:34:37.584Z,83.20
2023-01-30T23:37:04.665Z,83.31
2023-01-30T23:39:31.593Z,82.98
2023-01-30T23:41:58.550Z,83.04
2023-01-30T23:44:25.510Z,82.92
2023-01-30T23:46:52.628Z,83.04
2023-01-30T23:49:19.614Z,82.78
2023-01-30T23:51:46.811Z,82.71
2023-01-30T23:54:14.583Z,82.76
2023-01-30T23:56:44.785Z,82.77
2023-01-30T23:59:12.608Z,82.92
